Bookmark and Share
Track history (hours):
 

Grand Mercury

Last reported at 2014-Apr-22 22:04 UTC. Time now 2014-Apr-23 09:19 UTC.
Position S 34°24' E 024°54'.

Length 200 m; draft 8.8 m.

Type: Cargo ship. MMSI: 355649000.

NotesDate/timePositionNaut miles runAvg speedWind from/ knotsBaromVisibWave heightAir tempDewpointWater temp
2014-Apr-22 22:04S 34°24' E 024°54'2617.2
2014-Apr-22 20:33S 34°20' E 025°25'31817.7
2014-Apr-22 02:32S 31°06' E 030°25'2920.9
2014-Apr-22 01:09S 30°41' E 030°42'1319.7
2014-Apr-22 00:28S 30°29' E 030°50'1718.4
2014-Apr-21 23:33S 30°15' E 031°00'1817.6
2014-Apr-21 22:31S 29°59' E 031°09'8 8.3
2014-Apr-21 21:33S 29°52' E 031°04'1 1.2
2014-Apr-21 20:22S 29°52' E 031°02'0 0.0
2014-Apr-21 19:32S 29°52' E 031°02'0 0.0
2014-Apr-21 18:33S 29°52' E 031°02'0 0.0
2014-Apr-21 17:33S 29°52' E 031°02'0 0.0
2014-Apr-21 16:33S 29°52' E 031°02'0 0.0
2014-Apr-21 15:33S 29°52' E 031°02'0 0.0
2014-Apr-21 14:33S 29°52' E 031°02'0 0.0
2014-Apr-21 13:33S 29°52' E 031°02'0 0.0
2014-Apr-21 12:25S 29°52' E 031°02'0 0.0
2014-Apr-21 11:29S 29°52' E 031°02'0 0.0
2014-Apr-21 10:33S 29°52' E 031°02'0 0.0
2014-Apr-21 09:30S 29°52' E 031°02'0 0.0
2014-Apr-21 08:22S 29°52' E 031°02'0 0.0
2014-Apr-21 07:31S 29°52' E 031°02'2 1.8
2014-Apr-21 06:32S 29°52' E 031°04'5 4.8
2014-Apr-21 05:28S 29°49' E 031°09'1 0.5
2014-Apr-21 04:29S 29°49' E 031°10'1 1.0
2014-Apr-21 03:32S 29°49' E 031°11'6 6.2
2014-Apr-21 02:32S 29°47' E 031°18'1 1.4
2014-Apr-21 01:28S 29°47' E 031°19'7 7.1
2014-Apr-21 00:29S 29°46' E 031°27'9 8.3
2014-Apr-20 23:25S 29°44' E 031°37'7 8.4
2014-Apr-20 22:32S 29°43' E 031°45'9 8.6
2014-Apr-20 21:29S 29°41' E 031°56'  

Dump ship's entire track history

sailing weather and tide predictions

Grand Mercury — HOOC — position and weather